sensor_id;sensor_type;location;lat;lon;timestamp;pressure;altitude;pressure_sealevel;temperature;humidity
53619;BME280;39505;53.040;18.488;2023-02-08T08:43:54;104267.13;;;1.09;100.00
53619;BME280;39505;53.040;18.488;2023-02-08T08:44:08;104263.59;;;1.07;100.00
53619;BME280;39505;53.040;18.488;2023-02-08T08:44:21;104262.66;;;1.03;100.00
53619;BME280;39505;53.040;18.488;2023-02-08T08:44:34;104266.16;;;1.01;100.00
53619;BME280;39505;53.040;18.488;2023-02-08T08:44:46;104265.25;;;0.97;100.00
53619;BME280;39505;53.040;18.488;2023-02-08T08:44:59;104260.81;;;0.94;100.00
53619;BME280;39505;53.040;18.488;2023-02-08T08:45:13;104266.03;;;0.91;100.00
53619;BME280;39505;53.040;18.488;2023-02-08T08:45:26;104260.75;;;0.88;100.00
53619;BME280;39505;53.040;18.488;2023-02-08T08:45:38;104260.72;;;0.85;100.00
53619;BME280;39505;53.040;18.488;2023-02-08T08:45:51;104268.63;;;0.84;100.00
53619;BME280;39505;53.040;18.488;2023-02-08T08:46:05;104263.31;;;0.79;100.00
53619;BME280;39505;53.040;18.488;2023-02-08T08:46:20;104267.69;;;0.77;100.00
53619;BME280;39505;53.040;18.488;2023-02-08T08:46:33;104266.75;;;0.73;100.00
53619;BME280;39505;53.040;18.488;2023-02-08T08:46:46;104263.22;;;0.73;100.00
53619;BME280;39505;53.040;18.488;2023-02-08T08:47:00;104269.41;;;0.72;100.00
53619;BME280;39505;53.040;18.488;2023-02-08T08:47:12;104263.22;;;0.70;100.00
53619;BME280;39505;53.040;18.488;2023-02-08T08:47:27;104269.34;;;0.69;100.00
53619;BME280;39505;53.040;18.488;2023-02-08T08:47:39;104266.66;;;0.67;100.00
53619;BME280;39505;53.040;18.488;2023-02-08T08:47:52;104260.50;;;0.67;100.00
53619;BME280;39505;53.040;18.488;2023-02-08T08:48:05;104265.75;;;0.65;100.00
53619;BME280;39505;53.040;18.488;2023-02-08T08:48:18;104266.63;;;0.63;100.00
53619;BME280;39505;53.040;18.488;2023-02-08T08:48:31;104261.34;;;0.63;100.00
53619;BME280;39505;53.040;18.488;2023-02-08T08:48:45;104266.63;;;0.63;100.00
53619;BME280;39505;53.040;18.488;2023-02-08T08:48:58;104267.53;;;0.63;100.00
53619;BME280;39505;53.040;18.488;2023-02-08T08:49:11;104259.59;;;0.63;100.00
53619;BME280;39505;53.040;18.488;2023-02-08T08:49:24;104263.13;;;0.64;100.00
53619;BME280;39505;53.040;18.488;2023-02-08T08:49:38;104263.13;;;0.64;100.00
53619;BME280;39505;53.040;18.488;2023-02-08T08:49:50;104266.69;;;0.66;100.00
53619;BME280;39505;53.040;18.488;2023-02-08T08:50:04;104271.97;;;0.66;100.00
53619;BME280;39505;53.040;18.488;2023-02-08T08:50:16;104262.28;;;0.66;100.00
53619;BME280;39505;53.040;18.488;2023-02-08T08:50:29;104264.91;;;0.66;100.00
53619;BME280;39505;53.040;18.488;2023-02-08T08:50:43;104265.78;;;0.67;100.00
53619;BME280;39505;53.040;18.488;2023-02-08T08:50:55;104265.78;;;0.67;100.00
53619;BME280;39505;53.040;18.488;2023-02-08T08:51:08;104264.03;;;0.66;100.00
53619;BME280;39505;53.040;18.488;2023-02-08T08:51:21;104259.59;;;0.65;100.00
53619;BME280;39505;53.040;18.488;2023-02-08T08:51:35;104263.13;;;0.64;100.00
53619;BME280;39505;53.040;18.488;2023-02-08T08:51:49;104266.63;;;0.63;100.00
53619;BME280;39505;53.040;18.488;2023-02-08T08:52:02;104262.22;;;0.62;100.00
53619;BME280;39505;53.040;18.488;2023-02-08T08:52:17;104261.34;;;0.61;100.00
53619;BME280;39505;53.040;18.488;2023-02-08T08:52:30;104268.34;;;0.61;100.00
53619;BME280;39505;53.040;18.488;2023-02-08T08:52:44;104263.06;;;0.61;100.00
53619;BME280;39505;53.040;18.488;2023-02-08T08:52:56;104260.44;;;0.61;100.00
53619;BME280;39505;53.040;18.488;2023-02-08T08:53:09;104254.28;;;0.60;100.00
53619;BME280;39505;53.040;18.488;2023-02-08T08:53:22;104263.06;;;0.61;100.00
53619;BME280;39505;53.040;18.488;2023-02-08T08:53:35;104266.59;;;0.60;100.00
53619;BME280;39505;53.040;18.488;2023-02-08T08:53:49;104263.06;;;0.61;100.00
53619;BME280;39505;53.040;18.488;2023-02-08T08:54:03;104265.72;;;0.59;100.00
53619;BME280;39505;53.040;18.488;2023-02-08T08:54:16;104258.63;;;0.56;100.00
53619;BME280;39505;53.040;18.488;2023-02-08T08:54:29;104258.66;;;0.58;100.00
53619;BME280;39505;53.040;18.488;2023-02-08T08:54:43;104264.81;;;0.58;100.00
53619;BME280;39505;53.040;18.488;2023-02-08T08:54:56;104263.06;;;0.57;100.00
53619;BME280;39505;53.040;18.488;2023-02-08T08:55:08;104263.06;;;0.57;100.00
53619;BME280;39505;53.040;18.488;2023-02-08T08:55:21;104266.59;;;0.60;100.00
53619;BME280;39505;53.040;18.488;2023-02-08T08:55:34;104263.06;;;0.61;100.00
53619;BME280;39505;53.040;18.488;2023-02-08T08:55:48;104267.50;;;0.62;100.00
53619;BME280;39505;53.040;18.488;2023-02-08T08:56:01;104264.00;;;0.61;100.00
53619;BME280;39505;53.040;18.488;2023-02-08T08:56:14;104271.91;;;0.61;100.00
53619;BME280;39505;53.040;18.488;2023-02-08T08:56:26;104268.34;;;0.61;100.00
53619;BME280;39505;53.040;18.488;2023-02-08T08:56:39;104263.06;;;0.61;100.00
53619;BME280;39505;53.040;18.488;2023-02-08T08:56:53;104264.88;;;0.62;100.00
53619;BME280;39505;53.040;18.488;2023-02-08T08:57:05;104269.28;;;0.61;100.00
53619;BME280;39505;53.040;18.488;2023-02-08T08:57:18;104265.75;;;0.62;100.00
53619;BME280;39505;53.040;18.488;2023-02-08T08:57:31;104268.34;;;0.61;100.00
53619;BME280;39505;53.040;18.488;2023-02-08T08:57:45;104263.97;;;0.63;100.00
53619;BME280;39505;53.040;18.488;2023-02-08T08:57:57;104267.50;;;0.62;100.00
53619;BME280;39505;53.040;18.488;2023-02-08T08:58:10;104268.41;;;0.64;100.00
53619;BME280;39505;53.040;18.488;2023-02-08T08:58:23;104263.13;;;0.64;100.00
53619;BME280;39505;53.040;18.488;2023-02-08T08:58:36;104264.00;;;0.64;100.00
53619;BME280;39505;53.040;18.488;2023-02-08T08:58:49;104265.75;;;0.65;100.00
53619;BME280;39505;53.040;18.488;2023-02-08T08:59:03;104268.44;;;0.67;100.00
53619;BME280;39505;53.040;18.488;2023-02-08T08:59:16;104264.03;;;0.67;100.00
53619;BME280;39505;53.040;18.488;2023-02-08T08:59:29;104267.59;;;0.68;100.00
53619;BME280;39505;53.040;18.488;2023-02-08T08:59:43;104269.34;;;0.69;100.00
53619;BME280;39505;53.040;18.488;2023-02-08T08:59:56;104269.38;;;0.70;100.00
53619;BME280;39505;53.040;18.488;2023-02-08T09:00:10;104263.19;;;0.71;100.00
53619;BME280;39505;53.040;18.488;2023-02-08T09:00:23;104270.25;;;0.71;100.00
53619;BME280;39505;53.040;18.488;2023-02-08T09:00:36;104265.84;;;0.71;100.00
53619;BME280;39505;53.040;18.488;2023-02-08T09:00:50;104267.59;;;0.71;100.00
53619;BME280;39505;53.040;18.488;2023-02-08T09:01:02;104270.25;;;0.74;100.00
53619;BME280;39505;53.040;18.488;2023-02-08T09:01:16;104269.38;;;0.73;100.00
53619;BME280;39505;53.040;18.488;2023-02-08T09:01:29;104267.63;;;0.74;100.00
53619;BME280;39505;53.040;18.488;2023-02-08T09:01:45;104272.94;;;0.75;100.00
53619;BME280;39505;53.040;18.488;2023-02-08T09:01:58;104272.06;;;0.75;100.00
53619;BME280;39505;53.040;18.488;2023-02-08T09:02:12;104264.16;;;0.76;100.00
53619;BME280;39505;53.040;18.488;2023-02-08T09:02:25;104268.53;;;0.76;100.00
53619;BME280;39505;53.040;18.488;2023-02-08T09:02:38;104270.31;;;0.77;100.00
53619;BME280;39505;53.040;18.488;2023-02-08T09:02:51;104265.03;;;0.77;100.00
53619;BME280;39505;53.040;18.488;2023-02-08T09:03:04;104272.97;;;0.77;100.00
53619;BME280;39505;53.040;18.488;2023-02-08T09:03:17;104269.44;;;0.76;100.00
53619;BME280;39505;53.040;18.488;2023-02-08T09:03:30;104271.16;;;0.76;100.00
53619;BME280;39505;53.040;18.488;2023-02-08T09:03:43;104272.97;;;0.77;100.00
53619;BME280;39505;53.040;18.488;2023-02-08T09:03:55;104272.97;;;0.77;100.00
53619;BME280;39505;53.040;18.488;2023-02-08T09:04:09;104272.97;;;0.77;100.00
53619;BME280;39505;53.040;18.488;2023-02-08T09:04:22;104270.31;;;0.77;100.00
53619;BME280;39505;53.040;18.488;2023-02-08T09:04:35;104269.41;;;0.75;100.00
53619;BME280;39505;53.040;18.488;2023-02-08T09:04:48;104269.44;;;0.76;100.00
53619;BME280;39505;53.040;18.488;2023-02-08T09:05:00;104278.22;;;0.75;100.00
53619;BME280;39505;53.040;18.488;2023-02-08T09:05:16;104270.31;;;0.77;100.00
53619;BME280;39505;53.040;18.488;2023-02-08T09:05:29;104282.63;;;0.78;100.00
53619;BME280;39505;53.040;18.488;2023-02-08T09:05:42;104265.91;;;0.77;100.00
53619;BME280;39505;53.040;18.488;2023-02-08T09:05:55;104277.34;;;0.78;100.00
53619;BME280;39505;53.040;18.488;2023-02-08T09:06:09;104277.38;;;0.79;100.00
53619;BME280;39505;53.040;18.488;2023-02-08T09:06:22;104275.63;;;0.80;100.00
53619;BME280;39505;53.040;18.488;2023-02-08T09:06:34;104273.00;;;0.82;100.00
53619;BME280;39505;53.040;18.488;2023-02-08T09:06:47;104271.25;;;0.81;100.00
53619;BME280;39505;53.040;18.488;2023-02-08T09:07:01;104275.66;;;0.82;100.00
53619;BME280;39505;53.040;18.488;2023-02-08T09:07:14;104266.84;;;0.83;100.00
53619;BME280;39505;53.040;18.488;2023-02-08T09:07:27;104280.97;;;0.83;100.00
53619;BME280;39505;53.040;18.488;2023-02-08T09:07:39;104272.16;;;0.84;100.00
53619;BME280;39505;53.040;18.488;2023-02-08T09:07:52;104268.66;;;0.85;100.00
53619;BME280;39505;53.040;18.488;2023-02-08T09:08:06;104267.75;;;0.83;100.00
53619;BME280;39505;53.040;18.488;2023-02-08T09:08:18;104272.19;;;0.87;100.00
53619;BME280;39505;53.040;18.488;2023-02-08T09:08:31;104270.44;;;0.88;100.00
53619;BME280;39505;53.040;18.488;2023-02-08T09:08:44;104275.75;;;0.89;100.00
53619;BME280;39505;53.040;18.488;2023-02-08T09:08:56;104275.75;;;0.89;100.00
53619;BME280;39505;53.040;18.488;2023-02-08T09:09:10;104272.22;;;0.90;100.00
53619;BME280;39505;53.040;18.488;2023-02-08T09:09:23;104271.34;;;0.90;100.00
53619;BME280;39505;53.040;18.488;2023-02-08T09:09:36;104274.84;;;0.90;100.00
53619;BME280;39505;53.040;18.488;2023-02-08T09:09:48;104275.75;;;0.91;100.00
53619;BME280;39505;53.040;18.488;2023-02-08T09:10:01;104273.97;;;0.91;100.00
53619;BME280;39505;53.040;18.488;2023-02-08T09:10:14;104269.59;;;0.92;100.00
53619;BME280;39505;53.040;18.488;2023-02-08T09:10:28;104277.53;;;0.93;100.00
53619;BME280;39505;53.040;18.488;2023-02-08T09:10:42;104273.16;;;0.94;100.00
53619;BME280;39505;53.040;18.488;2023-02-08T09:10:55;104281.06;;;0.95;100.00
53619;BME280;39505;53.040;18.488;2023-02-08T09:11:09;104278.44;;;0.97;100.00
53619;BME280;39505;53.040;18.488;2023-02-08T09:11:22;104280.22;;;0.99;100.00
53619;BME280;39505;53.040;18.488;2023-02-08T09:11:36;104270.56;;;1.02;100.00
53619;BME280;39505;53.040;18.488;2023-02-08T09:11:49;104271.47;;;1.04;100.00
53619;BME280;39505;53.040;18.488;2023-02-08T09:12:02;104272.34;;;1.04;100.00
53619;BME280;39505;53.040;18.488;2023-02-08T09:12:15;104275.00;;;1.04;100.00
53619;BME280;39505;53.040;18.488;2023-02-08T09:12:29;104275.00;;;1.03;100.00
53619;BME280;39505;53.040;18.488;2023-02-08T09:12:42;104281.13;;;1.02;100.00
53619;BME280;39505;53.040;18.488;2023-02-08T09:12:54;104276.75;;;1.01;100.00
53619;BME280;39505;53.040;18.488;2023-02-08T09:13:09;104275.84;;;1.02;100.00
53619;BME280;39505;53.040;18.488;2023-02-08T09:13:22;104274.09;;;1.01;100.00
53619;BME280;39505;53.040;18.488;2023-02-08T09:13:36;104274.09;;;1.01;100.00
53619;BME280;39505;53.040;18.488;2023-02-08T09:13:49;104271.44;;;0.99;100.00
53619;BME280;39505;53.040;18.488;2023-02-08T09:14:05;104272.31;;;0.99;100.00
53619;BME280;39505;53.040;18.488;2023-02-08T09:14:18;104271.44;;;0.99;100.00
53619;BME280;39505;53.040;18.488;2023-02-08T09:14:32;104271.41;;;0.97;100.00
53619;BME280;39505;53.040;18.488;2023-02-08T09:14:45;104273.16;;;0.97;100.00
53619;BME280;39505;53.040;18.488;2023-02-08T09:14:57;104273.16;;;0.97;100.00
53619;BME280;39505;53.040;18.488;2023-02-08T09:15:10;104268.75;;;0.97;100.00
53619;BME280;39505;53.040;18.488;2023-02-08T09:15:24;104274.03;;;0.97;100.00
53619;BME280;39505;53.040;18.488;2023-02-08T09:15:38;104270.56;;;0.98;100.00
53619;BME280;39505;53.040;18.488;2023-02-08T09:15:51;104267.91;;;0.98;100.00
53619;BME280;39505;53.040;18.488;2023-02-08T09:16:04;104264.38;;;0.96;100.00
53619;BME280;39505;53.040;18.488;2023-02-08T09:16:18;104259.09;;;0.98;100.00
53619;BME280;39505;53.040;18.488;2023-02-08T09:16:32;104264.38;;;0.99;100.00
53619;BME280;39505;53.040;18.488;2023-02-08T09:16:45;104266.16;;;1.01;100.00
53619;BME280;39505;53.040;18.488;2023-02-08T09:16:59;104268.81;;;1.01;100.00
53619;BME280;39505;53.040;18.488;2023-02-08T09:17:12;104268.81;;;1.01;100.00
53619;BME280;39505;53.040;18.488;2023-02-08T09:17:24;104269.69;;;1.01;100.00
53619;BME280;39505;53.040;18.488;2023-02-08T09:17:38;104262.66;;;1.00;100.00
53619;BME280;39505;53.040;18.488;2023-02-08T09:17:51;104267.03;;;0.99;100.00
53619;BME280;39505;53.040;18.488;2023-02-08T09:18:03;104269.66;;;0.99;100.00
53619;BME280;39505;53.040;18.488;2023-02-08T09:18:16;104264.38;;;0.99;100.00
53619;BME280;39505;53.040;18.488;2023-02-08T09:18:30;104268.81;;;1.01;100.00
53619;BME280;39505;53.040;18.488;2023-02-08T09:18:43;104269.69;;;1.01;100.00
53619;BME280;39505;53.040;18.488;2023-02-08T09:18:59;104264.41;;;1.01;100.00
53619;BME280;39505;53.040;18.488;2023-02-08T09:19:13;104266.16;;;1.01;100.00
53619;BME280;39505;53.040;18.488;2023-02-08T09:19:27;104268.81;;;1.02;100.00
53619;BME280;39505;53.040;18.488;2023-02-08T09:19:40;104268.81;;;1.04;100.00
53619;BME280;39505;53.040;18.488;2023-02-08T09:19:53;104269.72;;;1.03;100.00
53619;BME280;39505;53.040;18.488;2023-02-08T09:20:07;104266.19;;;1.04;100.00
53619;BME280;39505;53.040;18.488;2023-02-08T09:20:19;104268.81;;;1.02;100.00
53619;BME280;39505;53.040;18.488;2023-02-08T09:20:36;104264.44;;;1.03;100.00
53619;BME280;39505;53.040;18.488;2023-02-08T09:20:49;104275.00;;;1.04;100.00
53619;BME280;39505;53.040;18.488;2023-02-08T09:21:04;104270.59;;;1.03;100.00
53619;BME280;39505;53.040;18.488;2023-02-08T09:21:18;104273.22;;;1.03;100.00
53619;BME280;39505;53.040;18.488;2023-02-08T09:21:33;104277.63;;;1.04;100.00
53619;BME280;39505;53.040;18.488;2023-02-08T09:21:46;104277.63;;;1.04;100.00
53619;BME280;39505;53.040;18.488;2023-02-08T09:21:59;104270.59;;;1.03;100.00
53619;BME280;39505;53.040;18.488;2023-02-08T09:22:12;104269.69;;;1.04;100.00
53619;BME280;39505;53.040;18.488;2023-02-08T09:22:25;104273.22;;;1.03;100.00
53619;BME280;39505;53.040;18.488;2023-02-08T09:22:39;104276.78;;;1.05;100.00
53619;BME280;39505;53.040;18.488;2023-02-08T09:22:52;104272.38;;;1.06;100.00
53619;BME280;39505;53.040;18.488;2023-02-08T09:23:05;104275.91;;;1.06;100.00
53619;BME280;39505;53.040;18.488;2023-02-08T09:23:17;104276.81;;;1.07;100.00
53619;BME280;39505;53.040;18.488;2023-02-08T09:23:30;104264.44;;;1.06;100.00
53619;BME280;39505;53.040;18.488;2023-02-08T09:23:44;104275.94;;;1.09;100.00
53619;BME280;39505;53.040;18.488;2023-02-08T09:23:59;104277.72;;;1.09;100.00
53619;BME280;39505;53.040;18.488;2023-02-08T09:24:12;104277.72;;;1.09;100.00
53619;BME280;39505;53.040;18.488;2023-02-08T09:24:25;104277.72;;;1.09;100.00
53619;BME280;39505;53.040;18.488;2023-02-08T09:24:38;104278.59;;;1.09;100.00
53619;BME280;39505;53.040;18.488;2023-02-08T09:24:52;104278.59;;;1.09;100.00
53619;BME280;39505;53.040;18.488;2023-02-08T09:25:05;104275.06;;;1.10;100.00
53619;BME280;39505;53.040;18.488;2023-02-08T09:25:19;104280.38;;;1.12;100.00
53619;BME280;39505;53.040;18.488;2023-02-08T09:25:31;104277.72;;;1.12;100.00
53619;BME280;39505;53.040;18.488;2023-02-08T09:25:44;104271.56;;;1.13;100.00
53619;BME280;39505;53.040;18.488;2023-02-08T09:26:01;104274.19;;;1.13;100.00
53619;BME280;39505;53.040;18.488;2023-02-08T09:26:16;104275.09;;;1.13;100.00
53619;BME280;39505;53.040;18.488;2023-02-08T09:26:29;104271.56;;;1.14;100.00
53619;BME280;39505;53.040;18.488;2023-02-08T09:26:42;104276.88;;;1.16;100.00
53619;BME280;39505;53.040;18.488;2023-02-08T09:26:57;104268.97;;;1.17;100.00
53619;BME280;39505;53.040;18.488;2023-02-08T09:27:10;104272.50;;;1.18;100.00
53619;BME280;39505;53.040;18.488;2023-02-08T09:27:23;104268.09;;;1.18;100.00
53619;BME280;39505;53.040;18.488;2023-02-08T09:27:36;104262.81;;;1.18;100.00
53619;BME280;39505;53.040;18.488;2023-02-08T09:27:48;104270.75;;;1.20;100.00
53619;BME280;39505;53.040;18.488;2023-02-08T09:28:01;104271.63;;;1.20;100.00
53619;BME280;39505;53.040;18.488;2023-02-08T09:28:15;104273.44;;;1.25;100.00
53619;BME280;39505;53.040;18.488;2023-02-08T09:28:27;104274.31;;;1.25;100.00
53619;BME280;39505;53.040;18.488;2023-02-08T09:28:40;104275.19;;;1.26;100.00
53619;BME280;39505;53.040;18.488;2023-02-08T09:28:53;104265.53;;;1.28;100.00
53619;BME280;39505;53.040;18.488;2023-02-08T09:29:07;104269.03;;;1.25;100.00
53619;BME280;39505;53.040;18.488;2023-02-08T09:29:21;104267.28;;;1.27;100.00
53619;BME280;39505;53.040;18.488;2023-02-08T09:29:33;104274.34;;;1.28;100.00
53619;BME280;39505;53.040;18.488;2023-02-08T09:29:47;104268.16;;;1.28;100.00
53619;BME280;39505;53.040;18.488;2023-02-08T09:30:00;104268.19;;;1.29;100.00
53619;BME280;39505;53.040;18.488;2023-02-08T09:30:12;104274.34;;;1.28;100.00
53619;BME280;39505;53.040;18.488;2023-02-08T09:30:26;104276.97;;;1.28;100.00
53619;BME280;39505;53.040;18.488;2023-02-08T09:30:39;104263.75;;;1.28;100.00
53619;BME280;39505;53.040;18.488;2023-02-08T09:30:52;104272.56;;;1.27;100.00
53619;BME280;39505;53.040;18.488;2023-02-08T09:31:06;104274.34;;;1.28;100.00
53619;BME280;39505;53.040;18.488;2023-02-08T09:31:21;104268.19;;;1.29;100.00
53619;BME280;39505;53.040;18.488;2023-02-08T09:31:36;104269.97;;;1.29;100.00
53619;BME280;39505;53.040;18.488;2023-02-08T09:31:49;104278.75;;;1.29;100.00
53619;BME280;39505;53.040;18.488;2023-02-08T09:32:02;104275.22;;;1.30;100.00
53619;BME280;39505;53.040;18.488;2023-02-08T09:32:15;104277.88;;;1.30;100.00
53619;BME280;39505;53.040;18.488;2023-02-08T09:32:30;104269.09;;;1.31;100.00
53619;BME280;39505;53.040;18.488;2023-02-08T09:32:45;104269.13;;;1.33;100.00
53619;BME280;39505;53.040;18.488;2023-02-08T09:32:57;104270.84;;;1.32;100.00
53619;BME280;39505;53.040;18.488;2023-02-08T09:33:10;104270.91;;;1.35;100.00
53619;BME280;39505;53.040;18.488;2023-02-08T09:33:23;104272.66;;;1.36;100.00
53619;BME280;39505;53.040;18.488;2023-02-08T09:33:37;104263.81;;;1.34;100.00
53619;BME280;39505;53.040;18.488;2023-02-08T09:33:51;104266.47;;;1.34;100.00
53619;BME280;39505;53.040;18.488;2023-02-08T09:34:05;104269.09;;;1.34;100.00
53619;BME280;39505;53.040;18.488;2023-02-08T09:34:18;104265.59;;;1.34;100.00
53619;BME280;39505;53.040;18.488;2023-02-08T09:34:32;104271.78;;;1.36;100.00
53619;BME280;39505;53.040;18.488;2023-02-08T09:34:44;104277.91;;;1.32;100.00
53619;BME280;39505;53.040;18.488;2023-02-08T09:34:57;104261.16;;;1.31;100.00
53619;BME280;39505;53.040;18.488;2023-02-08T09:35:10;104270.84;;;1.32;100.00
53619;BME280;39505;53.040;18.488;2023-02-08T09:35:24;104262.91;;;1.32;100.00
53619;BME280;39505;53.040;18.488;2023-02-08T09:35:38;104268.22;;;1.32;100.00
53619;BME280;39505;53.040;18.488;2023-02-08T09:35:50;104277.91;;;1.32;100.00
53619;BME280;39505;53.040;18.488;2023-02-08T09:36:04;104269.09;;;1.31;100.00
53619;BME280;39505;53.040;18.488;2023-02-08T09:36:18;104277.91;;;1.32;100.00
53619;BME280;39505;53.040;18.488;2023-02-08T09:36:34;104271.72;;;1.30;100.00
53619;BME280;39505;53.040;18.488;2023-02-08T09:36:48;104269.94;;;1.27;100.00
53619;BME280;39505;53.040;18.488;2023-02-08T09:37:01;104274.34;;;1.30;100.00
53619;BME280;39505;53.040;18.488;2023-02-08T09:37:13;104270.88;;;1.31;100.00
53619;BME280;39505;53.040;18.488;2023-02-08T09:37:28;104278.78;;;1.31;100.00
53619;BME280;39505;53.040;18.488;2023-02-08T09:37:41;104273.50;;;1.31;100.00
53619;BME280;39505;53.040;18.488;2023-02-08T09:37:56;104267.31;;;1.30;100.00
53619;BME280;39505;53.040;18.488;2023-02-08T09:38:09;104270.84;;;1.32;100.00
53619;BME280;39505;53.040;18.488;2023-02-08T09:38:22;104270.91;;;1.35;100.00
53619;BME280;39505;53.040;18.488;2023-02-08T09:38:35;104275.28;;;1.36;100.00
53619;BME280;39505;53.040;18.488;2023-02-08T09:38:52;104270.91;;;1.38;100.00
53619;BME280;39505;53.040;18.488;2023-02-08T09:39:11;104272.69;;;1.39;100.00
53619;BME280;39505;53.040;18.488;2023-02-08T09:39:24;104270.03;;;1.41;100.00
53619;BME280;39505;53.040;18.488;2023-02-08T09:39:37;104276.25;;;1.42;100.00
53619;BME280;39505;53.040;18.488;2023-02-08T09:39:53;104280.66;;;1.46;100.00
53619;BME280;39505;53.040;18.488;2023-02-08T09:40:06;104277.13;;;1.45;100.00
53619;BME280;39505;53.040;18.488;2023-02-08T09:40:21;104280.69;;;1.47;100.00
53619;BME280;39505;53.040;18.488;2023-02-08T09:40:39;104280.69;;;1.47;100.00
53619;BME280;39505;53.040;18.488;2023-02-08T09:41:04;104277.19;;;1.51;100.00
53619;BME280;39505;53.040;18.488;2023-02-08T09:41:27;104278.97;;;1.54;100.00
53619;BME280;39505;53.040;18.488;2023-02-08T09:42:34;104286.09;;;1.61;100.00
53619;BME280;39505;53.040;18.488;2023-02-08T09:42:58;104285.22;;;1.62;100.00
53619;BME280;39505;53.040;18.488;2023-02-08T09:43:18;104281.69;;;1.63;100.00
53619;BME280;39505;53.040;18.488;2023-02-08T09:43:39;104286.13;;;1.66;100.00
53619;BME280;39505;53.040;18.488;2023-02-08T09:44:09;104287.91;;;1.68;100.00
53619;BME280;39505;53.040;18.488;2023-02-08T09:44:30;104281.75;;;1.71;100.00
53619;BME280;39505;53.040;18.488;2023-02-08T09:44:58;104281.75;;;1.72;100.00
53619;BME280;39505;53.040;18.488;2023-02-08T09:45:38;104281.81;;;1.80;100.00
53619;BME280;39505;53.040;18.488;2023-02-08T09:46:14;104278.31;;;1.84;100.00
53619;BME280;39505;53.040;18.488;2023-02-08T09:46:31;104279.19;;;1.85;100.00
53619;BME280;39505;53.040;18.488;2023-02-08T09:46:53;104277.44;;;1.87;100.00
53619;BME280;39505;53.040;18.488;2023-02-08T09:47:12;104278.34;;;1.89;100.00
53619;BME280;39505;53.040;18.488;2023-02-08T09:47:32;104278.38;;;1.92;100.00
53619;BME280;39505;53.040;18.488;2023-02-08T09:47:53;104273.97;;;1.92;100.00
53619;BME280;39505;53.040;18.488;2023-02-08T09:48:19;104271.34;;;1.97;100.00
53619;BME280;39505;53.040;18.488;2023-02-08T09:48:35;104279.31;;;2.01;100.00
53619;BME280;39505;53.040;18.488;2023-02-08T09:48:51;104280.22;;;2.05;100.00
53619;BME280;39505;53.040;18.488;2023-02-08T09:49:08;104272.25;;;2.07;100.00
53619;BME280;39505;53.040;18.488;2023-02-08T09:49:26;104271.41;;;2.09;100.00
53619;BME280;39505;53.040;18.488;2023-02-08T09:49:43;104279.38;;;2.12;100.00
53619;BME280;39505;53.040;18.488;2023-02-08T09:50:03;104274.97;;;2.16;100.00
53619;BME280;39505;53.040;18.488;2023-02-08T09:50:20;104274.97;;;2.19;100.00
53619;BME280;39505;53.040;18.488;2023-02-08T09:50:37;104273.25;;;2.22;100.00
53619;BME280;39505;53.040;18.488;2023-02-08T09:50:56;104270.59;;;2.22;100.00
53619;BME280;39505;53.040;18.488;2023-02-08T09:51:21;104278.56;;;2.26;100.00
53619;BME280;39505;53.040;18.488;2023-02-08T09:51:40;104270.63;;;2.29;100.00
53619;BME280;39505;53.040;18.488;2023-02-08T09:51:57;104273.28;;;2.30;100.00
53619;BME280;39505;53.040;18.488;2023-02-08T09:52:16;104275.06;;;2.31;100.00
53619;BME280;39505;53.040;18.488;2023-02-08T09:52:36;104273.28;;;2.32;100.00
53619;BME280;39505;53.040;18.488;2023-02-08T09:52:55;104268.88;;;2.34;100.00
53619;BME280;39505;53.040;18.488;2023-02-08T09:53:16;104273.28;;;2.35;100.00
53619;BME280;39505;53.040;18.488;2023-02-08T09:53:33;104272.44;;;2.36;100.00
53619;BME280;39505;53.040;18.488;2023-02-08T09:53:51;104273.31;;;2.36;100.00
53619;BME280;39505;53.040;18.488;2023-02-08T09:54:13;104271.53;;;2.37;100.00
53619;BME280;39505;53.040;18.488;2023-02-08T09:54:31;104268.03;;;2.38;100.00
53619;BME280;39505;53.040;18.488;2023-02-08T09:54:49;104267.13;;;2.39;100.00
53619;BME280;39505;53.040;18.488;2023-02-08T09:55:14;104268.03;;;2.41;100.00
53619;BME280;39505;53.040;18.488;2023-02-08T09:55:33;104274.22;;;2.44;100.00
53619;BME280;39505;53.040;18.488;2023-02-08T09:55:51;104266.31;;;2.46;100.00
53619;BME280;39505;53.040;18.488;2023-02-08T09:56:10;104261.91;;;2.48;100.00
53619;BME280;39505;53.040;18.488;2023-02-08T09:56:28;104262.75;;;2.50;100.00
53619;BME280;39505;53.040;18.488;2023-02-08T09:56:44;104266.28;;;2.52;100.00
53619;BME280;39505;53.040;18.488;2023-02-08T09:56:59;104266.31;;;2.55;100.00
53619;BME280;39505;53.040;18.488;2023-02-08T09:57:19;104264.56;;;2.59;100.00
53619;BME280;39505;53.040;18.488;2023-02-08T09:57:34;104268.09;;;2.62;100.00
53619;BME280;39505;53.040;18.488;2023-02-08T09:57:50;104270.78;;;2.66;100.00
53619;BME280;39505;53.040;18.488;2023-02-08T09:58:15;104268.13;;;2.66;100.00
53619;BME280;39505;53.040;18.488;2023-02-08T09:58:34;104264.59;;;2.70;100.00
53619;BME280;39505;53.040;18.488;2023-02-08T09:58:50;104264.63;;;2.74;100.00
53619;BME280;39505;53.040;18.488;2023-02-08T09:59:12;104260.19;;;2.78;100.00
53619;BME280;39505;53.040;18.488;2023-02-08T09:59:30;104269.94;;;2.82;100.00
53619;BME280;39505;53.040;18.488;2023-02-08T09:59:50;104262.88;;;2.84;100.00
53619;BME280;39505;53.040;18.488;2023-02-08T10:00:09;104266.41;;;2.89;100.00